Time;durP1;ratioP1;P1;durP2;ratioP2;P2;SDS_P1;SDS_P2;PMS_P1;PMS_P2;Temp;Humidity;BMP_temperature;BMP_pressure;BME280_temperature;BME280_humidity;BME280_pressure;Samples;Min_cycle;Max_cycle;Signal;HPM_P1;HPM_P2
2021/12/08 00:00:27;;;;;;;7.88;3.50;;;;;;;;;;5068300;28;20490;-71
2021/12/08 00:02:54;;;;;;;9.20;3.72;;;;;;;;;;5069591;28;20063;-70
2021/12/08 00:05:20;;;;;;;4.53;3.15;;;;;;;;;;5068531;28;20040;-71
2021/12/08 00:07:46;;;;;;;6.60;3.88;;;;;;;;;;5070920;28;20066;-71
2021/12/08 00:10:51;;;;;;;6.53;3.75;;;;;;;;;;5070102;28;20040;-71
2021/12/08 00:13:14;;;;;;;11.70;4.47;;;;;;;;;;5070541;28;20053;-70
2021/12/08 00:15:42;;;;;;;6.55;3.45;;;;;;;;;;5069193;28;20040;-70
2021/12/08 00:18:10;;;;;;;6.90;4.00;;;;;;;;;;5073812;28;20043;-70
2021/12/08 00:20:37;;;;;;;11.10;4.15;;;;;;;;;;5069266;28;20444;-71
2021/12/08 00:23:04;;;;;;;5.82;3.60;;;;;;;;;;5052716;28;20394;-71
2021/12/08 00:25:31;;;;;;;6.88;4.07;;;;;;;;;;5069669;28;20076;-70
2021/12/08 00:27:57;;;;;;;9.02;3.28;;;;;;;;;;5072299;28;20037;-70
2021/12/08 00:30:24;;;;;;;9.02;3.80;;;;;;;;;;5070601;28;20044;-70
2021/12/08 00:32:54;;;;;;;5.95;2.95;;;;;;;;;;5069491;28;20036;-71
2021/12/08 00:35:21;;;;;;;13.98;4.38;;;;;;;;;;5067843;28;20393;-70
2021/12/08 00:37:47;;;;;;;8.98;3.70;;;;;;;;;;5076120;28;20047;-71
2021/12/08 00:40:15;;;;;;;8.27;3.40;;;;;;;;;;5078767;28;20039;-70
2021/12/08 00:42:41;;;;;;;14.07;4.30;;;;;;;;;;5069746;28;20043;-70
2021/12/08 00:45:10;;;;;;;6.25;3.50;;;;;;;;;;5069376;28;20413;-71
2021/12/08 00:47:36;;;;;;;14.23;4.18;;;;;;;;;;5071775;28;20150;-71
2021/12/08 00:50:07;;;;;;;7.80;4.18;;;;;;;;;;5051698;28;20036;-71
2021/12/08 00:52:33;;;;;;;7.45;4.63;;;;;;;;;;5066218;28;20072;-70
2021/12/08 00:55:00;;;;;;;10.48;4.30;;;;;;;;;;5071902;28;20122;-70
2021/12/08 00:57:26;;;;;;;6.25;3.60;;;;;;;;;;5072988;28;20552;-70
2021/12/08 00:59:52;;;;;;;8.88;4.53;;;;;;;;;;5074393;28;20032;-71
2021/12/08 01:02:19;;;;;;;9.13;4.28;;;;;;;;;;5075261;28;20040;-71
2021/12/08 01:04:45;;;;;;;26.77;4.65;;;;;;;;;;5071681;28;20040;-70
2021/12/08 01:07:11;;;;;;;6.50;3.90;;;;;;;;;;5066876;28;20127;-70
2021/12/08 01:09:37;;;;;;;8.00;4.32;;;;;;;;;;5073772;28;20093;-70
2021/12/08 01:12:04;;;;;;;10.15;4.22;;;;;;;;;;5072249;28;20040;-71
2021/12/08 01:14:30;;;;;;;7.63;4.32;;;;;;;;;;5099753;28;20047;-71
2021/12/08 01:16:57;;;;;;;8.27;4.63;;;;;;;;;;5072229;28;20036;-70
2021/12/08 01:19:23;;;;;;;10.05;4.45;;;;;;;;;;5069524;28;20053;-70
2021/12/08 01:21:49;;;;;;;7.47;4.80;;;;;;;;;;5074882;28;20041;-71
2021/12/08 01:24:15;;;;;;;7.70;5.28;;;;;;;;;;5070101;28;20041;-71
2021/12/08 01:26:42;;;;;;;7.32;4.40;;;;;;;;;;5067155;28;20036;-70
2021/12/08 01:29:08;;;;;;;10.48;5.53;;;;;;;;;;5074218;28;20043;-71
2021/12/08 01:31:36;;;;;;;9.60;5.15;;;;;;;;;;5101896;28;20037;-70
2021/12/08 01:34:03;;;;;;;13.10;6.13;;;;;;;;;;5072342;28;20036;-70
2021/12/08 01:36:29;;;;;;;9.48;5.90;;;;;;;;;;5072531;28;20075;-71
2021/12/08 01:38:55;;;;;;;6.18;4.88;;;;;;;;;;5066968;28;20445;-71
2021/12/08 01:41:23;;;;;;;12.60;5.97;;;;;;;;;;5074718;28;20501;-70
2021/12/08 01:46:34;;;;;;;7.22;5.28;;;;;;;;;;5070181;28;20500;-71
2021/12/08 01:49:02;;;;;;;11.13;5.68;;;;;;;;;;5072938;28;20487;-70
2021/12/08 01:51:28;;;;;;;10.52;5.10;;;;;;;;;;5072939;28;20050;-71
2021/12/08 01:53:56;;;;;;;9.10;5.07;;;;;;;;;;5069197;28;20479;-71
2021/12/08 01:56:24;;;;;;;10.50;5.18;;;;;;;;;;5074594;28;20032;-70
2021/12/08 01:58:51;;;;;;;7.80;5.82;;;;;;;;;;5071794;28;20647;-71
2021/12/08 02:01:18;;;;;;;7.05;5.35;;;;;;;;;;5071742;28;20044;-71
2021/12/08 02:03:44;;;;;;;8.10;5.53;;;;;;;;;;5069387;28;20037;-71
2021/12/08 02:06:12;;;;;;;9.35;5.07;;;;;;;;;;5065932;28;20041;-71
2021/12/08 02:08:38;;;;;;;8.90;5.97;;;;;;;;;;5064845;28;20036;-71
2021/12/08 02:11:06;;;;;;;11.20;5.82;;;;;;;;;;5071329;28;20040;-70
2021/12/08 02:13:38;;;;;;;8.00;5.82;;;;;;;;;;5072720;28;20040;-70
2021/12/08 02:16:08;;;;;;;8.90;5.57;;;;;;;;;;5072070;28;20032;-70
2021/12/08 02:18:36;;;;;;;7.20;5.78;;;;;;;;;;5072108;28;20047;-71
2021/12/08 02:21:19;;;;;;;8.18;6.10;;;;;;;;;;5071540;28;20043;-70
2021/12/08 02:23:45;;;;;;;8.23;6.10;;;;;;;;;;5069406;28;20044;-71
2021/12/08 02:26:11;;;;;;;9.23;5.30;;;;;;;;;;5067497;28;20047;-71
2021/12/08 02:28:37;;;;;;;7.50;5.30;;;;;;;;;;5071143;28;20489;-71
2021/12/08 02:31:08;;;;;;;7.55;5.95;;;;;;;;;;5071579;28;20032;-71
2021/12/08 02:49:55;;;;;;;9.38;6.28;;;;;;;;;;5066314;28;20050;-71
2021/12/08 02:52:21;;;;;;;11.32;7.85;;;;;;;;;;5070678;28;20391;-71
2021/12/08 02:54:49;;;;;;;10.27;6.35;;;;;;;;;;5066669;28;20032;-71
2021/12/08 02:57:16;;;;;;;11.73;7.10;;;;;;;;;;5064646;28;20049;-71
2021/12/08 02:59:43;;;;;;;10.05;6.65;;;;;;;;;;5069829;28;20028;-70
2021/12/08 03:02:10;;;;;;;11.48;7.13;;;;;;;;;;5070027;28;20037;-70
2021/12/08 03:04:36;;;;;;;10.50;7.40;;;;;;;;;;5071098;28;20107;-71
2021/12/08 03:07:02;;;;;;;9.25;7.50;;;;;;;;;;5065969;28;20084;-71
2021/12/08 03:09:28;;;;;;;9.35;7.05;;;;;;;;;;5069114;28;20143;-70
2021/12/08 03:11:56;;;;;;;10.90;7.65;;;;;;;;;;5068007;28;20048;-70
2021/12/08 03:14:22;;;;;;;10.60;8.48;;;;;;;;;;5071052;28;20127;-70
2021/12/08 03:16:50;;;;;;;22.52;8.65;;;;;;;;;;5068368;28;20359;-70
2021/12/08 03:19:17;;;;;;;10.75;7.20;;;;;;;;;;5073074;28;20044;-70
2021/12/08 03:21:44;;;;;;;16.83;8.38;;;;;;;;;;5071074;28;20041;-71
2021/12/08 03:24:23;;;;;;;10.80;7.78;;;;;;;;;;5067281;28;20047;-71
2021/12/08 03:26:56;;;;;;;12.25;8.73;;;;;;;;;;5071056;28;20048;-70
2021/12/08 03:30:29;;;;;;;11.32;8.68;;;;;;;;;;5069589;28;20044;-70
2021/12/08 03:32:26;;;;;;;10.10;8.40;;;;;;;;;;5067475;28;20048;-71
2021/12/08 03:34:52;;;;;;;11.55;8.52;;;;;;;;;;5068352;28;20110;-70
2021/12/08 03:37:23;;;;;;;10.63;7.85;;;;;;;;;;5075832;28;20044;-71
2021/12/08 03:39:50;;;;;;;10.20;8.35;;;;;;;;;;5068067;28;20089;-70
2021/12/08 03:42:17;;;;;;;11.32;8.15;;;;;;;;;;5069065;28;20036;-70
2021/12/08 03:44:44;;;;;;;9.70;7.82;;;;;;;;;;5071964;28;20068;-70
2021/12/08 03:47:16;;;;;;;17.48;8.45;;;;;;;;;;5065852;28;20044;-70
2021/12/08 03:49:44;;;;;;;9.93;7.83;;;;;;;;;;5079868;28;20498;-70
2021/12/08 03:52:10;;;;;;;13.73;9.00;;;;;;;;;;5070022;28;20048;-71
2021/12/08 03:54:36;;;;;;;12.35;8.98;;;;;;;;;;5065844;28;20048;-70
2021/12/08 03:57:02;;;;;;;10.80;8.75;;;;;;;;;;5071529;28;20036;-71
2021/12/08 03:59:29;;;;;;;12.70;8.98;;;;;;;;;;5068923;28;20040;-70
2021/12/08 04:01:55;;;;;;;12.07;8.63;;;;;;;;;;5067044;28;20078;-70
2021/12/08 04:04:26;;;;;;;11.50;8.75;;;;;;;;;;5068838;28;20397;-71
2021/12/08 04:06:53;;;;;;;10.93;8.75;;;;;;;;;;5066136;28;20504;-71
2021/12/08 04:11:52;;;;;;;14.77;9.13;;;;;;;;;;5069644;28;20397;-71
2021/12/08 04:14:19;;;;;;;9.85;8.20;;;;;;;;;;5068480;28;20058;-70
2021/12/08 04:17:09;;;;;;;11.43;8.70;;;;;;;;;;5068564;28;20033;-71
2021/12/08 04:19:37;;;;;;;13.70;8.95;;;;;;;;;;5080230;28;20127;-71
2021/12/08 04:22:10;;;;;;;15.48;10.93;;;;;;;;;;5069226;28;20398;-70
2021/12/08 04:24:38;;;;;;;14.38;9.88;;;;;;;;;;5064329;28;20048;-70
2021/12/08 04:27:09;;;;;;;11.95;9.82;;;;;;;;;;5072995;28;20056;-71
2021/12/08 04:29:38;;;;;;;14.63;9.18;;;;;;;;;;5071145;28;20051;-71
2021/12/08 04:32:05;;;;;;;17.65;9.63;;;;;;;;;;5067869;28;20041;-70
2021/12/08 04:34:34;;;;;;;14.60;9.68;;;;;;;;;;5072710;28;20040;-70
2021/12/08 04:37:04;;;;;;;13.85;9.68;;;;;;;;;;5069591;28;20059;-70
2021/12/08 04:39:43;;;;;;;11.85;10.13;;;;;;;;;;5069861;28;20040;-70
2021/12/08 04:42:14;;;;;;;14.23;8.38;;;;;;;;;;5068729;28;20379;-71
2021/12/08 04:44:48;;;;;;;12.52;9.45;;;;;;;;;;5070219;28;20040;-71
2021/12/08 05:00:56;;;;;;;11.95;9.50;;;;;;;;;;5071236;28;20041;-70
2021/12/08 05:06:35;;;;;;;12.25;9.02;;;;;;;;;;5066784;28;20045;-71
2021/12/08 05:09:01;;;;;;;15.30;9.68;;;;;;;;;;5066741;28;20098;-71
2021/12/08 05:11:33;;;;;;;14.35;9.88;;;;;;;;;;5065433;28;20116;-71
2021/12/08 05:14:02;;;;;;;14.63;9.25;;;;;;;;;;5068626;28;20131;-71
2021/12/08 05:16:28;;;;;;;14.57;9.30;;;;;;;;;;5066738;28;20560;-71
2021/12/08 05:18:56;;;;;;;14.02;8.95;;;;;;;;;;5071361;28;20542;-71
2021/12/08 05:21:46;;;;;;;18.70;9.80;;;;;;;;;;5064862;28;20056;-71
2021/12/08 05:24:15;;;;;;;13.50;8.73;;;;;;;;;;5071596;28;20044;-71
2021/12/08 05:26:50;;;;;;;12.35;8.52;;;;;;;;;;5069161;28;20033;-71
2021/12/08 05:29:29;;;;;;;12.82;9.23;;;;;;;;;;5103450;28;20055;-71
2021/12/08 05:31:57;;;;;;;17.00;8.18;;;;;;;;;;5065796;28;20041;-71
2021/12/08 05:34:23;;;;;;;10.55;9.13;;;;;;;;;;5083053;28;20040;-70
2021/12/08 05:36:50;;;;;;;12.48;9.20;;;;;;;;;;5066923;28;20556;-71
2021/12/08 05:39:20;;;;;;;14.27;10.18;;;;;;;;;;5059197;28;20082;-71
2021/12/08 05:41:47;;;;;;;10.52;9.18;;;;;;;;;;5072407;28;20036;-71
2021/12/08 05:44:13;;;;;;;16.02;10.18;;;;;;;;;;5089045;28;20098;-71
2021/12/08 05:46:42;;;;;;;12.02;9.27;;;;;;;;;;5073665;28;20040;-71
2021/12/08 05:49:09;;;;;;;11.57;7.88;;;;;;;;;;5074964;28;20068;-71
2021/12/08 05:51:36;;;;;;;17.10;9.45;;;;;;;;;;5072394;28;20039;-71
2021/12/08 05:54:05;;;;;;;12.32;8.75;;;;;;;;;;5072503;28;20083;-71
2021/12/08 05:56:31;;;;;;;18.67;8.23;;;;;;;;;;5073022;28;20036;-71
2021/12/08 05:58:59;;;;;;;14.88;8.70;;;;;;;;;;5071285;28;20040;-71
2021/12/08 06:01:28;;;;;;;12.02;7.97;;;;;;;;;;5070945;28;20044;-71
2021/12/08 06:03:54;;;;;;;9.98;8.05;;;;;;;;;;5083484;28;20121;-71
2021/12/08 06:06:21;;;;;;;12.38;7.20;;;;;;;;;;5075737;28;20401;-71
2021/12/08 06:08:48;;;;;;;16.48;8.80;;;;;;;;;;5068008;28;20418;-71
2021/12/08 06:11:16;;;;;;;12.82;7.63;;;;;;;;;;5071356;28;20041;-71
2021/12/08 06:13:43;;;;;;;10.65;7.15;;;;;;;;;;5069669;28;20040;-71
2021/12/08 06:16:11;;;;;;;13.32;8.43;;;;;;;;;;5070298;28;20115;-71
2021/12/08 06:18:39;;;;;;;16.23;7.78;;;;;;;;;;5065414;28;20551;-71
2021/12/08 06:21:08;;;;;;;13.95;7.28;;;;;;;;;;5066720;28;20037;-71
2021/12/08 06:23:35;;;;;;;11.30;7.00;;;;;;;;;;5064813;28;20053;-71
2021/12/08 06:26:01;;;;;;;14.10;6.60;;;;;;;;;;5071072;28;20473;-71
2021/12/08 06:28:28;;;;;;;13.30;6.88;;;;;;;;;;5069854;28;20116;-71
2021/12/08 06:30:56;;;;;;;12.25;7.18;;;;;;;;;;5070885;28;20489;-71
2021/12/08 06:33:22;;;;;;;10.18;6.68;;;;;;;;;;5065926;28;20052;-71
2021/12/08 06:35:50;;;;;;;17.25;6.70;;;;;;;;;;5067404;28;20090;-71
2021/12/08 06:38:17;;;;;;;10.52;7.05;;;;;;;;;;5071324;28;20112;-71
2021/12/08 06:40:55;;;;;;;9.88;6.75;;;;;;;;;;5066964;28;20032;-71
2021/12/08 06:43:23;;;;;;;8.70;5.28;;;;;;;;;;5068034;28;20040;-71
2021/12/08 06:45:51;;;;;;;8.65;6.35;;;;;;;;;;5068805;28;20044;-72
2021/12/08 06:48:22;;;;;;;9.40;5.78;;;;;;;;;;5096064;28;20074;-71
2021/12/08 06:50:52;;;;;;;10.70;6.45;;;;;;;;;;5043044;28;20532;-71
2021/12/08 06:53:18;;;;;;;12.93;6.68;;;;;;;;;;5056509;28;20177;-71
2021/12/08 06:55:53;;;;;;;9.85;6.25;;;;;;;;;;5096911;28;20082;-71
2021/12/08 06:58:22;;;;;;;12.85;5.65;;;;;;;;;;5059847;28;20032;-71
2021/12/08 07:03:46;;;;;;;12.82;5.72;;;;;;;;;;5061267;28;20045;-71
2021/12/08 07:09:10;;;;;;;11.05;5.90;;;;;;;;;;5064987;28;20048;-72
2021/12/08 07:11:36;;;;;;;8.18;5.60;;;;;;;;;;5062629;28;20044;-71
2021/12/08 07:14:03;;;;;;;10.52;5.18;;;;;;;;;;5058181;28;20052;-71
2021/12/08 07:16:33;;;;;;;10.73;4.93;;;;;;;;;;5062273;28;20049;-71
2021/12/08 07:19:08;;;;;;;8.55;5.00;;;;;;;;;;5093360;28;20060;-71
2021/12/08 07:21:35;;;;;;;16.13;5.30;;;;;;;;;;5062362;28;20044;-71
2021/12/08 07:24:05;;;;;;;12.23;5.20;;;;;;;;;;5063900;28;20079;-71
2021/12/08 07:26:33;;;;;;;9.55;5.13;;;;;;;;;;5064055;28;20032;-71
2021/12/08 07:29:00;;;;;;;9.65;5.50;;;;;;;;;;5060904;28;20036;-71
2021/12/08 07:31:30;;;;;;;9.27;4.32;;;;;;;;;;5064763;28;20556;-71
2021/12/08 07:34:02;;;;;;;10.18;4.78;;;;;;;;;;5060030;28;20051;-71
2021/12/08 07:36:29;;;;;;;6.25;4.35;;;;;;;;;;5054088;28;20032;-71
2021/12/08 07:38:59;;;;;;;8.77;4.03;;;;;;;;;;5062231;28;20113;-71
2021/12/08 07:41:30;;;;;;;10.45;5.07;;;;;;;;;;5057870;28;20043;-72
2021/12/08 07:43:57;;;;;;;7.35;4.40;;;;;;;;;;5064965;28;20531;-71
2021/12/08 07:46:32;;;;;;;11.43;4.53;;;;;;;;;;5062393;28;20880;-71
2021/12/08 07:49:07;;;;;;;8.65;4.45;;;;;;;;;;5059782;28;20250;-71
2021/12/08 07:51:46;;;;;;;9.00;4.22;;;;;;;;;;5056824;28;20393;-71
2021/12/08 07:54:12;;;;;;;8.23;4.07;;;;;;;;;;5065769;28;20430;-71
2021/12/08 07:56:41;;;;;;;10.00;4.15;;;;;;;;;;5061798;28;20134;-71
2021/12/08 07:59:09;;;;;;;8.15;4.18;;;;;;;;;;5066719;28;20516;-71
2021/12/08 08:01:38;;;;;;;13.55;4.45;;;;;;;;;;5095307;28;20040;-71
2021/12/08 08:04:06;;;;;;;8.95;4.47;;;;;;;;;;5069009;28;20425;-71
2021/12/08 08:06:34;;;;;;;14.85;4.03;;;;;;;;;;5067060;28;20059;-71
2021/12/08 08:09:01;;;;;;;10.80;5.00;;;;;;;;;;5066605;28;20044;-71
2021/12/08 08:11:30;;;;;;;13.25;3.83;;;;;;;;;;5065940;28;20095;-71
2021/12/08 08:13:56;;;;;;;9.73;3.70;;;;;;;;;;5060325;28;20392;-71
2021/12/08 08:16:25;;;;;;;7.22;3.75;;;;;;;;;;5062338;28;20045;-71
2021/12/08 08:18:57;;;;;;;13.52;4.07;;;;;;;;;;5066399;28;20036;-72
2021/12/08 08:21:25;;;;;;;5.30;3.72;;;;;;;;;;5071157;28;20102;-71
2021/12/08 08:23:51;;;;;;;8.48;4.68;;;;;;;;;;5067879;28;20064;-71
2021/12/08 08:26:18;;;;;;;9.55;3.78;;;;;;;;;;5067313;28;20552;-72
2021/12/08 08:28:47;;;;;;;10.32;4.00;;;;;;;;;;5063611;28;20045;-71
2021/12/08 08:31:26;;;;;;;5.22;3.95;;;;;;;;;;5064578;28;20066;-71
2021/12/08 08:33:52;;;;;;;8.27;3.83;;;;;;;;;;5059931;28;20052;-72
2021/12/08 08:36:23;;;;;;;7.90;2.55;;;;;;;;;;5097680;28;20048;-71
2021/12/08 08:38:50;;;;;;;8.25;3.53;;;;;;;;;;5088219;28;20471;-71
2021/12/08 08:41:23;;;;;;;7.85;3.55;;;;;;;;;;5064097;28;20447;-71
2021/12/08 08:43:51;;;;;;;6.07;3.17;;;;;;;;;;5061219;28;20090;-71
2021/12/08 08:46:19;;;;;;;4.82;2.83;;;;;;;;;;5069377;28;20055;-71
2021/12/08 08:48:52;;;;;;;9.43;3.53;;;;;;;;;;5065267;28;20437;-71
2021/12/08 08:51:18;;;;;;;11.68;3.65;;;;;;;;;;5060718;28;20132;-71
2021/12/08 08:53:46;;;;;;;9.02;2.65;;;;;;;;;;5069527;28;20036;-71
2021/12/08 08:56:15;;;;;;;7.78;3.10;;;;;;;;;;5065496;28;20044;-71
2021/12/08 08:58:43;;;;;;;4.50;2.30;;;;;;;;;;5066037;28;20036;-71
2021/12/08 09:01:21;;;;;;;8.23;3.35;;;;;;;;;;5071963;28;20127;-71
2021/12/08 09:03:51;;;;;;;8.18;3.13;;;;;;;;;;5064743;28;20087;-71
2021/12/08 09:06:22;;;;;;;9.18;2.95;;;;;;;;;;5062381;28;20131;-70
2021/12/08 09:08:48;;;;;;;9.27;3.20;;;;;;;;;;5064075;28;20080;-71
2021/12/08 09:11:17;;;;;;;9.10;3.03;;;;;;;;;;5068390;28;20440;-71
2021/12/08 09:13:46;;;;;;;6.55;3.47;;;;;;;;;;5078589;28;20510;-71
2021/12/08 09:16:15;;;;;;;6.65;2.85;;;;;;;;;;5073166;28;20448;-71
2021/12/08 09:18:52;;;;;;;5.72;2.63;;;;;;;;;;5072309;28;20075;-71
2021/12/08 09:21:29;;;;;;;10.43;3.10;;;;;;;;;;5053206;28;20044;-70
2021/12/08 09:24:07;;;;;;;15.40;4.20;;;;;;;;;;5048096;28;20050;-71
2021/12/08 09:26:35;;;;;;;7.05;2.83;;;;;;;;;;5051989;28;20061;-71
2021/12/08 09:29:17;;;;;;;8.00;3.30;;;;;;;;;;5054775;28;20049;-71
2021/12/08 09:31:54;;;;;;;9.25;3.20;;;;;;;;;;5050732;28;20033;-71
2021/12/08 09:34:23;;;;;;;7.22;3.17;;;;;;;;;;5046797;28;20089;-71
2021/12/08 09:36:52;;;;;;;6.55;2.75;;;;;;;;;;5052740;28;20397;-70
2021/12/08 09:39:24;;;;;;;4.88;3.33;;;;;;;;;;5062264;28;20465;-71
2021/12/08 09:41:56;;;;;;;10.63;3.10;;;;;;;;;;5050602;28;20103;-71
2021/12/08 09:44:27;;;;;;;5.57;3.50;;;;;;;;;;5051331;28;20048;-71
2021/12/08 09:46:53;;;;;;;6.93;3.35;;;;;;;;;;5063867;28;20048;-70
2021/12/08 09:49:23;;;;;;;8.27;3.40;;;;;;;;;;5053039;28;20072;-71
2021/12/08 09:51:50;;;;;;;12.13;4.03;;;;;;;;;;5051408;28;20076;-71
2021/12/08 09:54:17;;;;;;;7.10;3.15;;;;;;;;;;5049420;28;20445;-71
2021/12/08 09:56:44;;;;;;;7.78;3.10;;;;;;;;;;5051677;28;20040;-71
2021/12/08 09:59:11;;;;;;;6.10;2.70;;;;;;;;;;5052414;28;20033;-71
2021/12/08 10:01:41;;;;;;;6.10;2.63;;;;;;;;;;5057533;28;20029;-71
2021/12/08 10:04:09;;;;;;;9.25;3.50;;;;;;;;;;5049688;28;20445;-72
2021/12/08 10:06:37;;;;;;;10.32;3.75;;;;;;;;;;5043346;28;20067;-71
2021/12/08 10:09:03;;;;;;;9.10;3.60;;;;;;;;;;5054061;28;20045;-71
2021/12/08 10:11:31;;;;;;;10.45;3.53;;;;;;;;;;5048852;28;20048;-71
2021/12/08 10:13:57;;;;;;;10.52;3.72;;;;;;;;;;5043517;28;20558;-71
2021/12/08 10:16:24;;;;;;;8.85;3.15;;;;;;;;;;5053751;28;20051;-72
2021/12/08 10:18:51;;;;;;;11.35;4.10;;;;;;;;;;5051793;28;20087;-70
2021/12/08 10:21:19;;;;;;;9.27;3.63;;;;;;;;;;5066083;28;20130;-71
2021/12/08 10:23:46;;;;;;;7.53;3.25;;;;;;;;;;5073199;28;20045;-71
2021/12/08 10:26:14;;;;;;;9.95;3.72;;;;;;;;;;5071180;28;20040;-71
2021/12/08 10:28:41;;;;;;;6.93;2.63;;;;;;;;;;5071359;28;20095;-71
2021/12/08 10:31:11;;;;;;;13.85;4.53;;;;;;;;;;5078598;28;20040;-71
2021/12/08 10:34:04;;;;;;;10.63;3.35;;;;;;;;;;5074720;28;20062;-71
2021/12/08 10:36:37;;;;;;;7.13;2.70;;;;;;;;;;5071211;28;20116;-71
2021/12/08 10:39:03;;;;;;;;;;;;;;;;;;5082799;28;20028;-72
2021/12/08 10:41:43;;;;;;;10.95;3.97;;;;;;;;;;5102867;27;19917;-71
2021/12/08 10:44:09;;;;;;;6.90;3.45;;;;;;;;;;5059633;28;20051;-71
2021/12/08 10:46:38;;;;;;;7.95;3.75;;;;;;;;;;5054173;28;20044;-72
2021/12/08 10:54:23;;;;;;;10.65;3.10;;;;;;;;;;5071672;28;20056;-71
2021/12/08 10:54:53;;;;;;;7.38;3.13;;;;;;;;;;5072441;28;20195;-71
2021/12/08 10:57:25;;;;;;;7.85;3.03;;;;;;;;;;5070808;28;20037;-71
2021/12/08 10:59:51;;;;;;;7.50;3.58;;;;;;;;;;5070471;28;20064;-72
2021/12/08 11:02:47;;;;;;;8.10;2.97;;;;;;;;;;5070235;28;20421;-71
2021/12/08 11:05:25;;;;;;;11.75;3.75;;;;;;;;;;5059930;28;20147;-72
2021/12/08 11:08:03;;;;;;;13.00;3.22;;;;;;;;;;5069237;28;20083;-72
2021/12/08 11:10:31;;;;;;;11.25;2.40;;;;;;;;;;5077708;28;20036;-72
2021/12/08 11:12:58;;;;;;;14.30;3.53;;;;;;;;;;5072071;28;20070;-71
2021/12/08 11:15:24;;;;;;;7.05;2.67;;;;;;;;;;5071316;28;20474;-71
2021/12/08 11:18:30;;;;;;;16.33;3.13;;;;;;;;;;5070027;28;20037;-71
2021/12/08 11:20:59;;;;;;;10.07;3.67;;;;;;;;;;5049363;28;20053;-72
2021/12/08 11:23:47;;;;;;;4.78;2.80;;;;;;;;;;5047829;28;20037;-71
2021/12/08 11:26:25;;;;;;;6.00;3.08;;;;;;;;;;5065251;28;20177;-73
2021/12/08 11:29:11;;;;;;;7.15;3.08;;;;;;;;;;5068914;28;20033;-71
2021/12/08 11:31:45;;;;;;;8.50;3.10;;;;;;;;;;5073999;28;20043;-71
2021/12/08 11:34:23;;;;;;;6.05;3.88;;;;;;;;;;5067419;28;20048;-71
2021/12/08 11:36:51;;;;;;;7.00;3.55;;;;;;;;;;5068514;28;20032;-72
2021/12/08 11:39:27;;;;;;;8.38;4.10;;;;;;;;;;5071885;28;20051;-72
2021/12/08 11:41:55;;;;;;;7.53;3.05;;;;;;;;;;5067557;28;20492;-71
2021/12/08 11:44:22;;;;;;;5.25;3.05;;;;;;;;;;5071008;28;20052;-72
2021/12/08 11:46:50;;;;;;;6.53;3.40;;;;;;;;;;5065427;28;20509;-72
2021/12/08 11:49:17;;;;;;;11.52;3.45;;;;;;;;;;5065531;28;20044;-72
2021/12/08 11:51:43;;;;;;;4.25;2.40;;;;;;;;;;5055090;28;20040;-71
2021/12/08 11:54:28;;;;;;;6.82;3.28;;;;;;;;;;5077300;28;20048;-72
2021/12/08 11:57:01;;;;;;;6.20;3.30;;;;;;;;;;5065487;28;20040;-71
2021/12/08 11:59:27;;;;;;;7.63;3.88;;;;;;;;;;5068802;28;20099;-71
2021/12/08 12:01:53;;;;;;;7.22;2.80;;;;;;;;;;5070986;28;20041;-71
2021/12/08 12:04:19;;;;;;;10.57;4.10;;;;;;;;;;5069808;28;20037;-71
2021/12/08 12:06:46;;;;;;;8.18;3.85;;;;;;;;;;5070023;28;20410;-71
2021/12/08 12:09:12;;;;;;;7.40;3.38;;;;;;;;;;5071561;28;20533;-71
2021/12/08 12:11:38;;;;;;;6.93;3.45;;;;;;;;;;5070561;28;20122;-71
2021/12/08 12:14:05;;;;;;;8.90;3.53;;;;;;;;;;5065647;28;20047;-71
2021/12/08 12:16:31;;;;;;;8.13;3.63;;;;;;;;;;5072252;28;20059;-71
2021/12/08 12:19:01;;;;;;;9.65;3.53;;;;;;;;;;5069018;28;20036;-71
2021/12/08 12:21:34;;;;;;;10.35;3.50;;;;;;;;;;5069813;28;20061;-71
2021/12/08 12:24:05;;;;;;;7.80;3.40;;;;;;;;;;5071507;28;20207;-71
2021/12/08 12:26:53;;;;;;;9.35;3.72;;;;;;;;;;5068639;28;20032;-71
2021/12/08 12:29:19;;;;;;;4.68;3.30;;;;;;;;;;5069414;28;20025;-71
2021/12/08 12:31:45;;;;;;;6.63;3.85;;;;;;;;;;5064716;28;20037;-72
2021/12/08 12:34:24;;;;;;;6.50;3.15;;;;;;;;;;5064306;28;20067;-71
2021/12/08 12:36:51;;;;;;;8.77;3.65;;;;;;;;;;5058872;28;20033;-71
2021/12/08 12:39:19;;;;;;;8.52;3.13;;;;;;;;;;5065706;28;20076;-71
2021/12/08 12:41:56;;;;;;;8.25;3.58;;;;;;;;;;5061339;28;20430;-71
2021/12/08 12:44:28;;;;;;;6.18;3.45;;;;;;;;;;5063582;28;20036;-71
2021/12/08 12:47:10;;;;;;;5.38;3.60;;;;;;;;;;5064494;28;20471;-71
2021/12/08 12:49:41;;;;;;;6.63;3.00;;;;;;;;;;5094469;28;20072;-71
2021/12/08 12:52:08;;;;;;;5.88;3.05;;;;;;;;;;5059382;28;20175;-71
2021/12/08 12:54:34;;;;;;;5.93;2.92;;;;;;;;;;5060094;28;20045;-72
2021/12/08 12:57:03;;;;;;;7.82;2.90;;;;;;;;;;5064413;28;20064;-71
2021/12/08 12:59:40;;;;;;;4.72;3.08;;;;;;;;;;5062798;28;20041;-71
2021/12/08 13:02:12;;;;;;;5.18;3.05;;;;;;;;;;5062759;28;20448;-71
2021/12/08 13:04:59;;;;;;;6.95;3.00;;;;;;;;;;5063118;28;20494;-72
2021/12/08 13:07:26;;;;;;;7.95;3.60;;;;;;;;;;5065585;28;20402;-72
2021/12/08 13:09:54;;;;;;;5.78;2.90;;;;;;;;;;5067482;28;20547;-71
2021/12/08 13:12:26;;;;;;;4.55;2.83;;;;;;;;;;5060976;28;20041;-71
2021/12/08 13:15:07;;;;;;;13.23;3.60;;;;;;;;;;5057948;28;20041;-72
2021/12/08 13:17:34;;;;;;;6.72;3.03;;;;;;;;;;5064990;28;20033;-72
2021/12/08 13:20:02;;;;;;;6.20;3.10;;;;;;;;;;5060447;28;20059;-71
2021/12/08 13:22:48;;;;;;;6.82;2.95;;;;;;;;;;5063342;28;20037;-72
2021/12/08 13:25:24;;;;;;;5.22;2.80;;;;;;;;;;5097272;28;20037;-72
2021/12/08 13:28:09;;;;;;;9.23;3.35;;;;;;;;;;5050552;28;20502;-72
2021/12/08 13:30:35;;;;;;;5.72;2.63;;;;;;;;;;5066488;28;20446;-72
2021/12/08 13:33:08;;;;;;;6.55;2.50;;;;;;;;;;5068589;28;20033;-72
2021/12/08 13:35:37;;;;;;;9.50;2.75;;;;;;;;;;5065990;28;20407;-72
2021/12/08 13:38:04;;;;;;;5.38;2.22;;;;;;;;;;5063325;28;20129;-71
2021/12/08 13:40:47;;;;;;;10.00;2.30;;;;;;;;;;5060900;28;20155;-72
2021/12/08 13:43:32;;;;;;;5.57;2.22;;;;;;;;;;5062480;28;20174;-72
2021/12/08 13:45:58;;;;;;;7.70;2.55;;;;;;;;;;5062558;28;20056;-72
2021/12/08 13:48:24;;;;;;;6.95;2.40;;;;;;;;;;5066327;28;20134;-71
2021/12/08 13:50:51;;;;;;;5.00;2.63;;;;;;;;;;5064365;28;20044;-72
2021/12/08 13:53:17;;;;;;;5.55;2.72;;;;;;;;;;5065959;28;20083;-71
2021/12/08 13:55:45;;;;;;;5.72;2.65;;;;;;;;;;5065538;28;20035;-71
2021/12/08 13:58:14;;;;;;;5.95;3.20;;;;;;;;;;5061912;28;20080;-71
2021/12/08 14:00:45;;;;;;;7.65;2.72;;;;;;;;;;5065243;28;20096;-71
2021/12/08 14:03:18;;;;;;;6.05;2.33;;;;;;;;;;5098231;28;20465;-71
2021/12/08 14:05:58;;;;;;;4.75;2.13;;;;;;;;;;5064709;28;20048;-71
2021/12/08 14:08:27;;;;;;;5.78;2.53;;;;;;;;;;5066167;28;20047;-71
2021/12/08 14:10:56;;;;;;;10.23;3.83;;;;;;;;;;5066327;28;20123;-71
2021/12/08 14:13:26;;;;;;;7.57;2.88;;;;;;;;;;5065987;28;20041;-70
2021/12/08 14:15:54;;;;;;;5.85;2.55;;;;;;;;;;5062973;28;20068;-71
2021/12/08 14:18:25;;;;;;;6.90;2.85;;;;;;;;;;5068160;28;20079;-71
2021/12/08 14:20:58;;;;;;;5.22;2.63;;;;;;;;;;5066135;28;20048;-71
2021/12/08 14:23:30;;;;;;;8.10;2.45;;;;;;;;;;5064654;28;20083;-71
2021/12/08 14:25:58;;;;;;;9.20;3.10;;;;;;;;;;5064032;28;20040;-71
2021/12/08 14:28:39;;;;;;;4.78;2.88;;;;;;;;;;5070205;28;20408;-71
2021/12/08 14:31:25;;;;;;;6.00;2.72;;;;;;;;;;5067945;28;20032;-71
2021/12/08 14:34:04;;;;;;;6.55;2.35;;;;;;;;;;5064957;28;20049;-71
2021/12/08 14:36:30;;;;;;;6.40;2.90;;;;;;;;;;5066913;28;20033;-71
2021/12/08 14:38:59;;;;;;;4.43;2.75;;;;;;;;;;5067316;28;20044;-71
2021/12/08 14:41:28;;;;;;;4.97;2.50;;;;;;;;;;5066372;28;20036;-71
2021/12/08 14:44:01;;;;;;;6.68;3.00;;;;;;;;;;5067360;28;20212;-72
2021/12/08 14:46:27;;;;;;;8.40;2.55;;;;;;;;;;5062086;28;20044;-71
2021/12/08 14:49:01;;;;;;;8.65;3.30;;;;;;;;;;5060397;28;20521;-71
2021/12/08 14:51:28;;;;;;;8.23;3.28;;;;;;;;;;5108736;27;20055;-71
2021/12/08 14:53:54;;;;;;;6.70;2.40;;;;;;;;;;5067298;28;20041;-71
2021/12/08 14:56:22;;;;;;;6.53;2.78;;;;;;;;;;5067915;28;20029;-71
2021/12/08 14:58:55;;;;;;;5.70;2.50;;;;;;;;;;5069258;28;20134;-71
2021/12/08 15:01:22;;;;;;;4.53;2.53;;;;;;;;;;5069567;28;20032;-71
2021/12/08 15:03:48;;;;;;;6.63;2.90;;;;;;;;;;5064300;28;20041;-71
2021/12/08 15:06:19;;;;;;;7.63;3.08;;;;;;;;;;5069081;28;20032;-71
2021/12/08 15:08:45;;;;;;;6.28;3.20;;;;;;;;;;5070639;28;20040;-71
2021/12/08 15:11:30;;;;;;;8.13;3.17;;;;;;;;;;5066510;28;20045;-71
2021/12/08 15:13:58;;;;;;;5.53;2.33;;;;;;;;;;5098241;28;20053;-71
2021/12/08 15:16:24;;;;;;;7.60;2.90;;;;;;;;;;5059014;28;20068;-71
2021/12/08 15:18:53;;;;;;;8.88;2.90;;;;;;;;;;5068814;28;20029;-70
2021/12/08 15:21:25;;;;;;;6.78;3.10;;;;;;;;;;5066020;28;20171;-71
2021/12/08 15:24:01;;;;;;;8.80;3.47;;;;;;;;;;5069737;28;20047;-71
2021/12/08 15:26:27;;;;;;;8.75;3.22;;;;;;;;;;5067166;28;20493;-71
2021/12/08 15:28:53;;;;;;;4.15;2.88;;;;;;;;;;5067447;28;20055;-71
2021/12/08 15:31:27;;;;;;;7.70;3.10;;;;;;;;;;5064720;28;20494;-71
2021/12/08 15:33:53;;;;;;;13.02;4.43;;;;;;;;;;5068265;28;20060;-71
2021/12/08 15:36:24;;;;;;;9.65;3.78;;;;;;;;;;5066099;28;20489;-71
2021/12/08 15:38:52;;;;;;;5.10;3.40;;;;;;;;;;5067881;28;20040;-71
2021/12/08 15:41:23;;;;;;;4.10;3.05;;;;;;;;;;5067619;28;20489;-71